sensor_id;sensor_type;location;lat;lon;timestamp;P1;durP1;ratioP1;P2;durP2;ratioP2
71423;SDS011;59240;51.370;-0.486;2024-03-06T00:03:46;17.05;;;5.93;;
71423;SDS011;59240;51.370;-0.486;2024-03-06T00:08:43;15.75;;;6.20;;
71423;SDS011;59240;51.370;-0.486;2024-03-06T00:13:40;11.52;;;6.78;;
71423;SDS011;59240;51.370;-0.486;2024-03-06T00:18:37;18.40;;;6.10;;
71423;SDS011;59240;51.370;-0.486;2024-03-06T00:23:34;13.55;;;5.90;;
71423;SDS011;59240;51.370;-0.486;2024-03-06T00:28:32;10.48;;;5.85;;
71423;SDS011;59240;51.370;-0.486;2024-03-06T00:33:29;11.15;;;5.00;;
71423;SDS011;59240;51.370;-0.486;2024-03-06T00:38:27;14.52;;;6.25;;
71423;SDS011;59240;51.370;-0.486;2024-03-06T00:43:24;11.70;;;6.30;;
71423;SDS011;59240;51.370;-0.486;2024-03-06T00:48:20;12.05;;;5.38;;
71423;SDS011;59240;51.370;-0.486;2024-03-06T00:53:17;11.75;;;5.45;;
71423;SDS011;59240;51.370;-0.486;2024-03-06T00:58:14;9.95;;;5.13;;
71423;SDS011;59240;51.370;-0.486;2024-03-06T01:03:11;14.32;;;5.60;;
71423;SDS011;59240;51.370;-0.486;2024-03-06T01:08:08;12.65;;;5.30;;
71423;SDS011;59240;51.370;-0.486;2024-03-06T01:13:05;10.93;;;5.45;;
71423;SDS011;59240;51.370;-0.486;2024-03-06T01:18:02;11.15;;;5.63;;
71423;SDS011;59240;51.370;-0.486;2024-03-06T01:23:00;10.65;;;5.10;;
71423;SDS011;59240;51.370;-0.486;2024-03-06T01:27:57;12.65;;;5.82;;
71423;SDS011;59240;51.370;-0.486;2024-03-06T01:32:54;14.98;;;5.43;;
71423;SDS011;59240;51.370;-0.486;2024-03-06T01:37:51;12.85;;;6.30;;
71423;SDS011;59240;51.370;-0.486;2024-03-06T01:42:48;9.82;;;4.65;;
71423;SDS011;59240;51.370;-0.486;2024-03-06T01:47:46;8.75;;;6.10;;
71423;SDS011;59240;51.370;-0.486;2024-03-06T01:52:43;10.48;;;5.78;;
71423;SDS011;59240;51.370;-0.486;2024-03-06T01:57:41;12.85;;;5.72;;
71423;SDS011;59240;51.370;-0.486;2024-03-06T02:02:38;13.90;;;6.43;;
71423;SDS011;59240;51.370;-0.486;2024-03-06T02:07:35;10.27;;;5.60;;
71423;SDS011;59240;51.370;-0.486;2024-03-06T02:12:34;16.23;;;5.68;;
71423;SDS011;59240;51.370;-0.486;2024-03-06T02:17:31;13.20;;;5.43;;
71423;SDS011;59240;51.370;-0.486;2024-03-06T02:22:29;14.25;;;7.30;;
71423;SDS011;59240;51.370;-0.486;2024-03-06T02:27:26;14.45;;;5.68;;
71423;SDS011;59240;51.370;-0.486;2024-03-06T02:32:23;12.10;;;5.68;;
71423;SDS011;59240;51.370;-0.486;2024-03-06T02:37:20;12.13;;;5.32;;
71423;SDS011;59240;51.370;-0.486;2024-03-06T02:42:18;10.63;;;5.40;;
71423;SDS011;59240;51.370;-0.486;2024-03-06T02:47:15;11.43;;;5.75;;
71423;SDS011;59240;51.370;-0.486;2024-03-06T02:52:12;11.65;;;5.88;;
71423;SDS011;59240;51.370;-0.486;2024-03-06T02:57:09;11.77;;;4.85;;
71423;SDS011;59240;51.370;-0.486;2024-03-06T03:02:06;10.85;;;5.07;;
71423;SDS011;59240;51.370;-0.486;2024-03-06T03:07:03;12.85;;;5.65;;
71423;SDS011;59240;51.370;-0.486;2024-03-06T03:11:59;13.32;;;5.13;;
71423;SDS011;59240;51.370;-0.486;2024-03-06T03:16:56;9.70;;;5.45;;
71423;SDS011;59240;51.370;-0.486;2024-03-06T03:21:53;10.20;;;4.72;;
71423;SDS011;59240;51.370;-0.486;2024-03-06T03:26:50;11.60;;;4.93;;
71423;SDS011;59240;51.370;-0.486;2024-03-06T03:31:47;12.20;;;5.05;;
71423;SDS011;59240;51.370;-0.486;2024-03-06T03:36:45;10.10;;;4.47;;
71423;SDS011;59240;51.370;-0.486;2024-03-06T03:41:42;8.63;;;4.85;;
71423;SDS011;59240;51.370;-0.486;2024-03-06T03:46:42;11.00;;;4.65;;
71423;SDS011;59240;51.370;-0.486;2024-03-06T03:51:40;9.68;;;4.75;;
71423;SDS011;59240;51.370;-0.486;2024-03-06T03:56:37;6.93;;;3.92;;
71423;SDS011;59240;51.370;-0.486;2024-03-06T04:01:34;9.07;;;4.32;;
71423;SDS011;59240;51.370;-0.486;2024-03-06T04:06:31;9.35;;;5.07;;
71423;SDS011;59240;51.370;-0.486;2024-03-06T04:11:28;9.07;;;4.65;;
71423;SDS011;59240;51.370;-0.486;2024-03-06T04:16:26;10.82;;;4.78;;
71423;SDS011;59240;51.370;-0.486;2024-03-06T04:21:25;7.55;;;4.43;;
71423;SDS011;59240;51.370;-0.486;2024-03-06T04:26:22;10.70;;;5.70;;
71423;SDS011;59240;51.370;-0.486;2024-03-06T04:31:19;16.52;;;6.30;;
71423;SDS011;59240;51.370;-0.486;2024-03-06T04:36:15;13.10;;;5.13;;
71423;SDS011;59240;51.370;-0.486;2024-03-06T04:41:13;11.88;;;4.78;;
71423;SDS011;59240;51.370;-0.486;2024-03-06T04:46:13;11.10;;;5.88;;
71423;SDS011;59240;51.370;-0.486;2024-03-06T04:51:12;15.48;;;5.18;;
71423;SDS011;59240;51.370;-0.486;2024-03-06T04:56:09;14.95;;;5.82;;
71423;SDS011;59240;51.370;-0.486;2024-03-06T05:01:06;13.30;;;6.25;;
71423;SDS011;59240;51.370;-0.486;2024-03-06T05:06:04;15.15;;;6.05;;
71423;SDS011;59240;51.370;-0.486;2024-03-06T05:11:15;13.23;;;5.85;;
71423;SDS011;59240;51.370;-0.486;2024-03-06T05:16:26;12.43;;;5.43;;
71423;SDS011;59240;51.370;-0.486;2024-03-06T05:21:37;16.17;;;6.85;;
71423;SDS011;59240;51.370;-0.486;2024-03-06T05:26:47;19.58;;;7.20;;
71423;SDS011;59240;51.370;-0.486;2024-03-06T05:31:58;16.50;;;6.63;;
71423;SDS011;59240;51.370;-0.486;2024-03-06T05:37:09;20.08;;;6.97;;
71423;SDS011;59240;51.370;-0.486;2024-03-06T05:42:19;21.85;;;7.72;;
71423;SDS011;59240;51.370;-0.486;2024-03-06T05:47:33;12.63;;;4.55;;
71423;SDS011;59240;51.370;-0.486;2024-03-06T05:52:43;21.27;;;6.63;;
71423;SDS011;59240;51.370;-0.486;2024-03-06T05:57:54;15.82;;;6.32;;
71423;SDS011;59240;51.370;-0.486;2024-03-06T06:03:05;23.65;;;7.57;;
71423;SDS011;59240;51.370;-0.486;2024-03-06T06:08:01;37.92;;;9.45;;
71423;SDS011;59240;51.370;-0.486;2024-03-06T06:12:58;26.73;;;8.57;;
71423;SDS011;59240;51.370;-0.486;2024-03-06T06:17:56;31.70;;;9.80;;
71423;SDS011;59240;51.370;-0.486;2024-03-06T06:22:53;24.77;;;8.77;;
71423;SDS011;59240;51.370;-0.486;2024-03-06T06:27:50;41.92;;;10.80;;
71423;SDS011;59240;51.370;-0.486;2024-03-06T06:32:47;39.67;;;10.13;;
71423;SDS011;59240;51.370;-0.486;2024-03-06T06:37:44;35.47;;;9.88;;
71423;SDS011;59240;51.370;-0.486;2024-03-06T06:42:44;47.35;;;11.30;;
71423;SDS011;59240;51.370;-0.486;2024-03-06T06:47:46;53.92;;;12.05;;
71423;SDS011;59240;51.370;-0.486;2024-03-06T06:52:44;47.58;;;11.02;;
71423;SDS011;59240;51.370;-0.486;2024-03-06T06:57:41;47.35;;;13.10;;
71423;SDS011;59240;51.370;-0.486;2024-03-06T07:02:38;41.65;;;10.48;;
71423;SDS011;59240;51.370;-0.486;2024-03-06T07:07:36;43.20;;;11.23;;
71423;SDS011;59240;51.370;-0.486;2024-03-06T07:12:34;46.28;;;11.73;;
71423;SDS011;59240;51.370;-0.486;2024-03-06T07:17:32;49.63;;;12.32;;
71423;SDS011;59240;51.370;-0.486;2024-03-06T07:22:29;51.85;;;12.15;;
71423;SDS011;59240;51.370;-0.486;2024-03-06T07:27:26;51.70;;;12.77;;
71423;SDS011;59240;51.370;-0.486;2024-03-06T07:32:23;72.65;;;13.23;;
71423;SDS011;59240;51.370;-0.486;2024-03-06T07:37:22;75.25;;;14.82;;
71423;SDS011;59240;51.370;-0.486;2024-03-06T07:42:18;72.53;;;13.63;;
71423;SDS011;59240;51.370;-0.486;2024-03-06T07:47:15;58.05;;;13.38;;
71423;SDS011;59240;51.370;-0.486;2024-03-06T07:52:12;55.85;;;11.45;;
71423;SDS011;59240;51.370;-0.486;2024-03-06T07:57:09;47.13;;;11.27;;
71423;SDS011;59240;51.370;-0.486;2024-03-06T08:02:06;46.97;;;12.50;;
71423;SDS011;59240;51.370;-0.486;2024-03-06T08:07:04;53.42;;;12.20;;
71423;SDS011;59240;51.370;-0.486;2024-03-06T08:12:01;40.67;;;12.05;;
71423;SDS011;59240;51.370;-0.486;2024-03-06T08:16:58;66.18;;;13.85;;
71423;SDS011;59240;51.370;-0.486;2024-03-06T08:21:55;45.60;;;13.00;;
71423;SDS011;59240;51.370;-0.486;2024-03-06T08:26:52;52.60;;;12.63;;
71423;SDS011;59240;51.370;-0.486;2024-03-06T08:31:49;52.00;;;12.57;;
71423;SDS011;59240;51.370;-0.486;2024-03-06T08:36:46;42.65;;;11.05;;
71423;SDS011;59240;51.370;-0.486;2024-03-06T08:41:43;42.03;;;9.80;;
71423;SDS011;59240;51.370;-0.486;2024-03-06T08:46:39;51.67;;;10.85;;
71423;SDS011;59240;51.370;-0.486;2024-03-06T08:51:36;36.88;;;10.00;;
71423;SDS011;59240;51.370;-0.486;2024-03-06T08:56:33;41.95;;;11.13;;
71423;SDS011;59240;51.370;-0.486;2024-03-06T09:01:31;40.05;;;11.80;;
71423;SDS011;59240;51.370;-0.486;2024-03-06T09:06:28;35.85;;;9.80;;
71423;SDS011;59240;51.370;-0.486;2024-03-06T09:11:24;43.10;;;12.40;;
71423;SDS011;59240;51.370;-0.486;2024-03-06T09:16:21;39.42;;;12.35;;
71423;SDS011;59240;51.370;-0.486;2024-03-06T09:21:18;40.92;;;11.85;;
71423;SDS011;59240;51.370;-0.486;2024-03-06T09:26:16;42.70;;;13.50;;
71423;SDS011;59240;51.370;-0.486;2024-03-06T09:31:13;39.60;;;12.65;;
71423;SDS011;59240;51.370;-0.486;2024-03-06T09:36:10;48.80;;;13.93;;
71423;SDS011;59240;51.370;-0.486;2024-03-06T09:41:09;51.35;;;14.45;;
71423;SDS011;59240;51.370;-0.486;2024-03-06T09:46:06;43.63;;;15.35;;
71423;SDS011;59240;51.370;-0.486;2024-03-06T09:51:03;53.78;;;15.70;;
71423;SDS011;59240;51.370;-0.486;2024-03-06T09:56:00;49.72;;;15.60;;
71423;SDS011;59240;51.370;-0.486;2024-03-06T10:00:58;52.30;;;15.60;;
71423;SDS011;59240;51.370;-0.486;2024-03-06T10:05:57;45.95;;;14.77;;
71423;SDS011;59240;51.370;-0.486;2024-03-06T10:10:57;47.63;;;15.90;;
71423;SDS011;59240;51.370;-0.486;2024-03-06T10:16:03;45.05;;;15.15;;
71423;SDS011;59240;51.370;-0.486;2024-03-06T10:21:05;53.63;;;15.18;;
71423;SDS011;59240;51.370;-0.486;2024-03-06T10:26:02;46.47;;;14.43;;
71423;SDS011;59240;51.370;-0.486;2024-03-06T10:31:03;55.67;;;18.98;;
71423;SDS011;59240;51.370;-0.486;2024-03-06T10:36:04;54.53;;;18.33;;
71423;SDS011;59240;51.370;-0.486;2024-03-06T10:41:03;54.38;;;16.65;;
71423;SDS011;59240;51.370;-0.486;2024-03-06T10:46:05;54.58;;;16.95;;
71423;SDS011;59240;51.370;-0.486;2024-03-06T10:51:06;49.63;;;16.58;;
71423;SDS011;59240;51.370;-0.486;2024-03-06T10:56:05;54.88;;;15.70;;
71423;SDS011;59240;51.370;-0.486;2024-03-06T11:01:05;49.75;;;17.98;;
71423;SDS011;59240;51.370;-0.486;2024-03-06T11:06:03;52.38;;;17.55;;
71423;SDS011;59240;51.370;-0.486;2024-03-06T11:16:28;66.28;;;25.23;;
71423;SDS011;59240;51.370;-0.486;2024-03-06T11:21:29;47.53;;;17.17;;
71423;SDS011;59240;51.370;-0.486;2024-03-06T11:26:26;52.00;;;18.08;;
71423;SDS011;59240;51.370;-0.486;2024-03-06T11:31:25;53.65;;;18.23;;
71423;SDS011;59240;51.370;-0.486;2024-03-06T11:36:23;47.95;;;17.95;;
71423;SDS011;59240;51.370;-0.486;2024-03-06T11:41:27;47.13;;;19.65;;
71423;SDS011;59240;51.370;-0.486;2024-03-06T11:51:45;52.88;;;18.83;;
71423;SDS011;59240;51.370;-0.486;2024-03-06T11:56:43;47.55;;;20.38;;
71423;SDS011;59240;51.370;-0.486;2024-03-06T12:01:42;46.90;;;19.55;;
71423;SDS011;59240;51.370;-0.486;2024-03-06T12:06:39;50.92;;;21.08;;
71423;SDS011;59240;51.370;-0.486;2024-03-06T12:11:36;42.28;;;19.95;;
71423;SDS011;59240;51.370;-0.486;2024-03-06T12:16:34;44.60;;;19.50;;
71423;SDS011;59240;51.370;-0.486;2024-03-06T12:21:31;48.53;;;19.95;;
71423;SDS011;59240;51.370;-0.486;2024-03-06T12:26:28;47.55;;;19.08;;
71423;SDS011;59240;51.370;-0.486;2024-03-06T12:31:25;48.40;;;19.50;;
71423;SDS011;59240;51.370;-0.486;2024-03-06T12:36:24;45.88;;;18.13;;
71423;SDS011;59240;51.370;-0.486;2024-03-06T12:41:23;36.97;;;15.38;;
71423;SDS011;59240;51.370;-0.486;2024-03-06T12:46:23;42.13;;;16.77;;
71423;SDS011;59240;51.370;-0.486;2024-03-06T12:51:20;35.42;;;16.10;;
71423;SDS011;59240;51.370;-0.486;2024-03-06T12:56:17;38.78;;;16.42;;
71423;SDS011;59240;51.370;-0.486;2024-03-06T13:01:14;44.53;;;18.48;;
71423;SDS011;59240;51.370;-0.486;2024-03-06T13:06:11;39.75;;;16.60;;
71423;SDS011;59240;51.370;-0.486;2024-03-06T13:11:08;32.33;;;14.43;;
71423;SDS011;59240;51.370;-0.486;2024-03-06T13:16:06;35.95;;;14.48;;
71423;SDS011;59240;51.370;-0.486;2024-03-06T13:21:09;32.00;;;14.73;;
71423;SDS011;59240;51.370;-0.486;2024-03-06T13:26:05;31.52;;;15.90;;
71423;SDS011;59240;51.370;-0.486;2024-03-06T13:31:02;34.33;;;14.55;;
71423;SDS011;59240;51.370;-0.486;2024-03-06T13:35:59;35.65;;;13.85;;
71423;SDS011;59240;51.370;-0.486;2024-03-06T13:41:00;28.25;;;13.32;;
71423;SDS011;59240;51.370;-0.486;2024-03-06T13:46:01;37.17;;;15.23;;
71423;SDS011;59240;51.370;-0.486;2024-03-06T13:50:58;32.38;;;13.55;;
71423;SDS011;59240;51.370;-0.486;2024-03-06T13:55:55;32.42;;;14.63;;
71423;SDS011;59240;51.370;-0.486;2024-03-06T14:00:52;29.38;;;13.23;;
71423;SDS011;59240;51.370;-0.486;2024-03-06T14:05:49;28.88;;;14.23;;
71423;SDS011;59240;51.370;-0.486;2024-03-06T14:10:46;36.90;;;14.52;;
71423;SDS011;59240;51.370;-0.486;2024-03-06T14:15:43;32.63;;;15.27;;
71423;SDS011;59240;51.370;-0.486;2024-03-06T14:20:41;29.05;;;13.05;;
71423;SDS011;59240;51.370;-0.486;2024-03-06T14:25:37;23.85;;;12.20;;
71423;SDS011;59240;51.370;-0.486;2024-03-06T14:30:36;21.23;;;9.75;;
71423;SDS011;59240;51.370;-0.486;2024-03-06T14:35:34;23.08;;;10.35;;
71423;SDS011;59240;51.370;-0.486;2024-03-06T14:40:30;23.30;;;11.23;;
71423;SDS011;59240;51.370;-0.486;2024-03-06T14:45:27;26.02;;;10.65;;
71423;SDS011;59240;51.370;-0.486;2024-03-06T14:50:24;24.63;;;12.10;;
71423;SDS011;59240;51.370;-0.486;2024-03-06T14:55:21;24.75;;;10.73;;
71423;SDS011;59240;51.370;-0.486;2024-03-06T15:00:18;20.95;;;10.50;;
71423;SDS011;59240;51.370;-0.486;2024-03-06T15:05:17;23.38;;;10.65;;
71423;SDS011;59240;51.370;-0.486;2024-03-06T15:10:14;18.67;;;8.63;;
71423;SDS011;59240;51.370;-0.486;2024-03-06T15:15:11;19.67;;;10.48;;
71423;SDS011;59240;51.370;-0.486;2024-03-06T15:20:09;18.30;;;9.30;;
71423;SDS011;59240;51.370;-0.486;2024-03-06T15:25:08;19.45;;;10.00;;
71423;SDS011;59240;51.370;-0.486;2024-03-06T15:30:06;16.35;;;8.02;;
71423;SDS011;59240;51.370;-0.486;2024-03-06T15:35:05;16.27;;;9.02;;
71423;SDS011;59240;51.370;-0.486;2024-03-06T15:40:02;12.90;;;7.30;;
71423;SDS011;59240;51.370;-0.486;2024-03-06T15:45:03;19.20;;;8.00;;
71423;SDS011;59240;51.370;-0.486;2024-03-06T15:50:00;15.38;;;8.20;;
71423;SDS011;59240;51.370;-0.486;2024-03-06T15:54:56;14.98;;;7.45;;
71423;SDS011;59240;51.370;-0.486;2024-03-06T15:59:54;16.88;;;7.82;;
71423;SDS011;59240;51.370;-0.486;2024-03-06T16:04:51;18.85;;;8.52;;
71423;SDS011;59240;51.370;-0.486;2024-03-06T16:09:47;15.98;;;8.43;;
71423;SDS011;59240;51.370;-0.486;2024-03-06T16:14:47;15.35;;;7.57;;
71423;SDS011;59240;51.370;-0.486;2024-03-06T16:19:44;16.95;;;7.22;;
71423;SDS011;59240;51.370;-0.486;2024-03-06T16:24:42;12.57;;;6.80;;
71423;SDS011;59240;51.370;-0.486;2024-03-06T16:29:39;14.88;;;6.95;;
71423;SDS011;59240;51.370;-0.486;2024-03-06T16:34:36;10.43;;;5.00;;
71423;SDS011;59240;51.370;-0.486;2024-03-06T16:39:34;9.73;;;5.30;;
71423;SDS011;59240;51.370;-0.486;2024-03-06T16:44:31;10.82;;;5.00;;
71423;SDS011;59240;51.370;-0.486;2024-03-06T16:49:28;7.25;;;4.18;;
71423;SDS011;59240;51.370;-0.486;2024-03-06T16:54:26;6.88;;;4.20;;
71423;SDS011;59240;51.370;-0.486;2024-03-06T16:59:23;14.18;;;5.22;;
71423;SDS011;59240;51.370;-0.486;2024-03-06T17:04:23;9.48;;;4.47;;
71423;SDS011;59240;51.370;-0.486;2024-03-06T17:09:20;8.20;;;4.10;;
71423;SDS011;59240;51.370;-0.486;2024-03-06T17:14:17;8.27;;;4.47;;
71423;SDS011;59240;51.370;-0.486;2024-03-06T17:19:15;9.88;;;4.75;;
71423;SDS011;59240;51.370;-0.486;2024-03-06T17:24:12;10.68;;;4.53;;
71423;SDS011;59240;51.370;-0.486;2024-03-06T17:29:09;12.52;;;4.70;;
71423;SDS011;59240;51.370;-0.486;2024-03-06T17:34:06;10.10;;;5.05;;
71423;SDS011;59240;51.370;-0.486;2024-03-06T17:39:04;10.50;;;5.28;;
71423;SDS011;59240;51.370;-0.486;2024-03-06T17:44:05;16.15;;;6.50;;
71423;SDS011;59240;51.370;-0.486;2024-03-06T17:49:02;14.32;;;7.53;;
71423;SDS011;59240;51.370;-0.486;2024-03-06T17:53:59;21.17;;;12.55;;
71423;SDS011;59240;51.370;-0.486;2024-03-06T17:58:56;21.73;;;11.32;;
71423;SDS011;59240;51.370;-0.486;2024-03-06T18:03:53;18.73;;;10.00;;
71423;SDS011;59240;51.370;-0.486;2024-03-06T18:08:50;14.13;;;6.43;;
71423;SDS011;59240;51.370;-0.486;2024-03-06T18:13:48;13.15;;;7.90;;
71423;SDS011;59240;51.370;-0.486;2024-03-06T18:18:45;15.25;;;6.03;;
71423;SDS011;59240;51.370;-0.486;2024-03-06T18:23:42;9.45;;;6.45;;
71423;SDS011;59240;51.370;-0.486;2024-03-06T18:28:39;10.43;;;4.97;;
71423;SDS011;59240;51.370;-0.486;2024-03-06T18:33:36;7.93;;;4.60;;
71423;SDS011;59240;51.370;-0.486;2024-03-06T18:38:33;15.68;;;7.55;;
71423;SDS011;59240;51.370;-0.486;2024-03-06T18:43:30;14.10;;;7.72;;
71423;SDS011;59240;51.370;-0.486;2024-03-06T18:48:27;16.77;;;8.98;;
71423;SDS011;59240;51.370;-0.486;2024-03-06T18:53:24;16.70;;;7.57;;
71423;SDS011;59240;51.370;-0.486;2024-03-06T18:58:21;14.13;;;7.78;;
71423;SDS011;59240;51.370;-0.486;2024-03-06T19:03:18;15.40;;;7.57;;
71423;SDS011;59240;51.370;-0.486;2024-03-06T19:08:15;13.30;;;7.22;;
71423;SDS011;59240;51.370;-0.486;2024-03-06T19:13:13;13.13;;;7.38;;
71423;SDS011;59240;51.370;-0.486;2024-03-06T19:18:10;13.30;;;7.50;;
71423;SDS011;59240;51.370;-0.486;2024-03-06T19:23:07;17.05;;;8.25;;
71423;SDS011;59240;51.370;-0.486;2024-03-06T19:28:04;15.75;;;9.35;;
71423;SDS011;59240;51.370;-0.486;2024-03-06T19:33:02;17.38;;;8.48;;
71423;SDS011;59240;51.370;-0.486;2024-03-06T19:38:00;14.30;;;8.75;;
71423;SDS011;59240;51.370;-0.486;2024-03-06T19:42:57;18.48;;;8.73;;
71423;SDS011;59240;51.370;-0.486;2024-03-06T19:47:54;13.85;;;8.13;;
71423;SDS011;59240;51.370;-0.486;2024-03-06T19:52:51;13.18;;;6.78;;
71423;SDS011;59240;51.370;-0.486;2024-03-06T19:57:48;13.93;;;7.05;;
71423;SDS011;59240;51.370;-0.486;2024-03-06T20:02:45;11.38;;;6.32;;
71423;SDS011;59240;51.370;-0.486;2024-03-06T20:07:42;15.23;;;6.68;;
71423;SDS011;59240;51.370;-0.486;2024-03-06T20:12:39;13.30;;;7.15;;
71423;SDS011;59240;51.370;-0.486;2024-03-06T20:17:36;17.95;;;9.93;;
71423;SDS011;59240;51.370;-0.486;2024-03-06T20:22:33;18.55;;;10.32;;
71423;SDS011;59240;51.370;-0.486;2024-03-06T20:27:31;18.40;;;9.05;;
71423;SDS011;59240;51.370;-0.486;2024-03-06T20:32:31;13.25;;;7.60;;
71423;SDS011;59240;51.370;-0.486;2024-03-06T20:37:28;13.10;;;7.20;;
71423;SDS011;59240;51.370;-0.486;2024-03-06T20:42:25;11.43;;;6.97;;
71423;SDS011;59240;51.370;-0.486;2024-03-06T20:47:22;14.38;;;7.47;;
71423;SDS011;59240;51.370;-0.486;2024-03-06T20:52:20;14.13;;;6.53;;
71423;SDS011;59240;51.370;-0.486;2024-03-06T20:57:17;15.23;;;6.93;;
71423;SDS011;59240;51.370;-0.486;2024-03-06T21:02:15;12.75;;;7.13;;
71423;SDS011;59240;51.370;-0.486;2024-03-06T21:07:12;14.45;;;6.95;;
71423;SDS011;59240;51.370;-0.486;2024-03-06T21:12:09;14.77;;;6.88;;
71423;SDS011;59240;51.370;-0.486;2024-03-06T21:17:06;12.68;;;7.45;;
71423;SDS011;59240;51.370;-0.486;2024-03-06T21:22:04;16.48;;;7.68;;
71423;SDS011;59240;51.370;-0.486;2024-03-06T21:27:02;14.68;;;7.20;;
71423;SDS011;59240;51.370;-0.486;2024-03-06T21:31:59;11.50;;;6.57;;
71423;SDS011;59240;51.370;-0.486;2024-03-06T21:36:56;14.00;;;7.68;;
71423;SDS011;59240;51.370;-0.486;2024-03-06T21:41:53;16.83;;;7.38;;
71423;SDS011;59240;51.370;-0.486;2024-03-06T21:46:50;15.35;;;6.80;;
71423;SDS011;59240;51.370;-0.486;2024-03-06T21:51:47;14.15;;;7.53;;
71423;SDS011;59240;51.370;-0.486;2024-03-06T21:56:44;12.20;;;7.50;;
71423;SDS011;59240;51.370;-0.486;2024-03-06T22:01:41;15.43;;;7.65;;
71423;SDS011;59240;51.370;-0.486;2024-03-06T22:06:38;18.77;;;8.05;;
71423;SDS011;59240;51.370;-0.486;2024-03-06T22:11:42;16.58;;;7.95;;
71423;SDS011;59240;51.370;-0.486;2024-03-06T22:16:39;15.45;;;7.00;;
71423;SDS011;59240;51.370;-0.486;2024-03-06T22:21:36;15.55;;;6.88;;
71423;SDS011;59240;51.370;-0.486;2024-03-06T22:26:33;12.52;;;6.35;;
71423;SDS011;59240;51.370;-0.486;2024-03-06T22:31:30;10.23;;;6.22;;
71423;SDS011;59240;51.370;-0.486;2024-03-06T22:36:27;11.75;;;5.78;;
71423;SDS011;59240;51.370;-0.486;2024-03-06T22:41:24;11.15;;;5.47;;
71423;SDS011;59240;51.370;-0.486;2024-03-06T22:46:24;10.00;;;6.25;;
71423;SDS011;59240;51.370;-0.486;2024-03-06T22:51:20;12.30;;;6.05;;
71423;SDS011;59240;51.370;-0.486;2024-03-06T22:56:18;15.57;;;7.00;;
71423;SDS011;59240;51.370;-0.486;2024-03-06T23:01:15;14.73;;;6.95;;
71423;SDS011;59240;51.370;-0.486;2024-03-06T23:06:12;16.25;;;7.18;;
71423;SDS011;59240;51.370;-0.486;2024-03-06T23:11:09;16.88;;;7.57;;
71423;SDS011;59240;51.370;-0.486;2024-03-06T23:16:06;14.98;;;7.40;;
71423;SDS011;59240;51.370;-0.486;2024-03-06T23:21:03;16.05;;;7.15;;
71423;SDS011;59240;51.370;-0.486;2024-03-06T23:26:00;13.32;;;8.02;;
71423;SDS011;59240;51.370;-0.486;2024-03-06T23:30:57;14.25;;;7.68;;
71423;SDS011;59240;51.370;-0.486;2024-03-06T23:35:54;14.15;;;7.90;;
71423;SDS011;59240;51.370;-0.486;2024-03-06T23:40:51;18.35;;;8.73;;
71423;SDS011;59240;51.370;-0.486;2024-03-06T23:45:48;17.48;;;7.90;;
71423;SDS011;59240;51.370;-0.486;2024-03-06T23:50:45;14.38;;;6.97;;
71423;SDS011;59240;51.370;-0.486;2024-03-06T23:55:42;15.35;;;7.38;;
